createdAt,value
2023-05-15T00:01:23.927Z,1.30
2023-05-15T00:03:51.345Z,1.20
2023-05-15T00:06:20.003Z,1.30
2023-05-15T00:08:46.613Z,1.30
2023-05-15T00:11:13.096Z,1.60
2023-05-15T00:13:39.577Z,1.30
2023-05-15T00:16:07.133Z,1.40
2023-05-15T00:18:33.929Z,1.60
2023-05-15T00:21:00.729Z,1.60
2023-05-15T00:23:28.944Z,0.90
2023-05-15T00:25:55.437Z,1.10
2023-05-15T00:28:21.939Z,0.90
2023-05-15T00:30:48.769Z,1.00
2023-05-15T00:33:16.234Z,0.90
2023-05-15T00:35:43.053Z,1.20
2023-05-15T00:38:09.616Z,1.00
2023-05-15T00:40:37.339Z,1.00
2023-05-15T00:43:04.128Z,1.00
2023-05-15T00:45:31.215Z,1.00
2023-05-15T00:47:58.257Z,1.10
2023-05-15T00:50:24.979Z,0.90
2023-05-15T00:52:51.727Z,1.40
2023-05-15T00:55:18.333Z,1.20
2023-05-15T00:57:44.953Z,1.30
2023-05-15T01:00:15.122Z,1.20
2023-05-15T01:02:42.099Z,1.10
2023-05-15T01:05:08.880Z,1.20
2023-05-15T01:07:51.949Z,1.10
2023-05-15T01:10:18.897Z,1.30
2023-05-15T01:12:46.455Z,1.10
2023-05-15T01:15:13.926Z,1.00
2023-05-15T01:17:40.450Z,0.90
2023-05-15T01:20:08.825Z,1.00
2023-05-15T01:22:52.532Z,0.90
2023-05-15T01:25:31.059Z,1.00
2023-05-15T01:28:05.764Z,0.90
2023-05-15T01:30:34.507Z,1.30
2023-05-15T01:33:25.028Z,1.10
2023-05-15T01:36:10.040Z,1.60
2023-05-15T01:38:44.420Z,1.20
2023-05-15T01:41:32.221Z,1.40
2023-05-15T01:44:04.664Z,1.30
2023-05-15T01:46:31.431Z,1.30
2023-05-15T01:48:58.061Z,0.90
2023-05-15T01:51:24.571Z,0.90
2023-05-15T01:53:51.021Z,0.80
2023-05-15T01:56:20.604Z,0.90
2023-05-15T01:58:47.131Z,0.80
2023-05-15T02:01:13.686Z,0.90
2023-05-15T02:03:40.308Z,1.20
2023-05-15T02:06:07.127Z,1.10
2023-05-15T02:08:33.918Z,0.90
2023-05-15T02:11:00.902Z,0.90
2023-05-15T02:13:27.613Z,1.10
2023-05-15T02:15:54.239Z,1.10
2023-05-15T02:18:21.314Z,1.50
2023-05-15T02:20:47.709Z,1.00
2023-05-15T02:23:15.279Z,1.00
2023-05-15T02:26:05.021Z,1.00
2023-05-15T02:28:46.876Z,0.80
2023-05-15T02:31:23.060Z,0.90
2023-05-15T02:34:15.841Z,0.80
2023-05-15T02:36:43.920Z,0.80
2023-05-15T02:39:11.154Z,0.90
2023-05-15T02:41:39.490Z,1.00
2023-05-15T02:44:05.999Z,0.90
2023-05-15T02:46:33.303Z,1.00
2023-05-15T02:49:00.330Z,0.90
2023-05-15T02:51:26.863Z,0.90
2023-05-15T02:53:53.354Z,1.00
2023-05-15T02:56:20.754Z,1.10
2023-05-15T02:58:47.393Z,0.90
2023-05-15T03:01:14.016Z,0.90
2023-05-15T03:03:40.593Z,0.80
2023-05-15T03:06:07.088Z,0.90
2023-05-15T03:08:34.282Z,0.80
2023-05-15T03:11:00.805Z,0.70
2023-05-15T03:13:28.045Z,0.70
2023-05-15T03:15:54.585Z,0.80
2023-05-15T03:18:21.329Z,1.00
2023-05-15T03:20:48.588Z,0.70
2023-05-15T03:23:15.405Z,0.70
2023-05-15T03:25:42.068Z,0.60
2023-05-15T03:28:08.789Z,0.80
2023-05-15T03:30:35.390Z,0.80
2023-05-15T03:33:03.325Z,0.70
2023-05-15T03:35:31.642Z,0.70
2023-05-15T03:37:58.125Z,0.90
2023-05-15T03:40:24.655Z,0.90
2023-05-15T03:42:52.860Z,1.00
2023-05-15T03:45:20.487Z,0.80
2023-05-15T03:47:48.305Z,1.30
2023-05-15T03:50:18.443Z,1.60
2023-05-15T03:52:45.192Z,1.20
2023-05-15T03:55:11.642Z,0.80
2023-05-15T03:57:40.967Z,1.30
2023-05-15T04:00:11.444Z,1.20
2023-05-15T04:02:41.955Z,0.70
2023-05-15T04:05:08.742Z,0.90
2023-05-15T04:07:36.202Z,0.80
2023-05-15T04:10:03.348Z,0.80
2023-05-15T04:12:31.974Z,0.70
2023-05-15T04:15:25.059Z,0.80
2023-05-15T04:17:52.672Z,0.80
2023-05-15T04:20:21.173Z,0.70
2023-05-15T04:22:47.995Z,0.70
2023-05-15T04:25:15.357Z,0.70
2023-05-15T04:27:42.912Z,0.80
2023-05-15T04:30:10.039Z,0.80
2023-05-15T04:32:38.932Z,0.90
2023-05-15T04:35:08.416Z,0.80
2023-05-15T04:37:41.394Z,0.80
2023-05-15T04:40:08.681Z,0.80
2023-05-15T04:42:35.729Z,0.70
2023-05-15T04:45:02.372Z,0.80
2023-05-15T04:47:29.587Z,0.80
2023-05-15T04:49:56.046Z,0.70
2023-05-15T04:52:22.592Z,0.70
2023-05-15T04:54:50.395Z,0.60
2023-05-15T04:57:17.025Z,0.60
2023-05-15T04:59:43.448Z,0.80
2023-05-15T05:02:10.354Z,0.50
2023-05-15T05:04:36.776Z,0.60
2023-05-15T05:07:05.129Z,0.70
2023-05-15T05:09:32.009Z,0.60
2023-05-15T05:11:59.382Z,0.50
2023-05-15T05:14:25.919Z,0.40
2023-05-15T05:16:52.523Z,0.60
2023-05-15T05:19:19.085Z,0.60
2023-05-15T05:21:45.651Z,0.50
2023-05-15T05:24:12.279Z,0.50
2023-05-15T05:26:38.795Z,0.60
2023-05-15T05:29:05.465Z,0.70
2023-05-15T05:31:32.516Z,0.70
2023-05-15T05:33:59.154Z,0.50
2023-05-15T05:36:25.925Z,0.60
2023-05-15T05:38:52.429Z,0.50
2023-05-15T05:41:18.862Z,0.40
2023-05-15T05:43:45.396Z,0.50
2023-05-15T05:46:12.003Z,0.70
2023-05-15T05:48:38.738Z,0.50
2023-05-15T05:51:05.384Z,0.50
2023-05-15T05:53:31.892Z,1.10
2023-05-15T05:55:58.531Z,0.50
2023-05-15T05:58:26.313Z,0.50
2023-05-15T06:00:53.484Z,0.50
2023-05-15T06:05:13.147Z,0.50
2023-05-15T06:07:40.251Z,0.50
2023-05-15T06:10:09.498Z,0.50
2023-05-15T06:12:36.393Z,0.40
2023-05-15T06:15:03.242Z,0.40
2023-05-15T06:17:29.935Z,0.40
2023-05-15T06:19:56.736Z,0.40
2023-05-15T06:22:23.375Z,0.30
2023-05-15T06:24:50.230Z,0.40
2023-05-15T06:27:16.870Z,0.50
2023-05-15T06:29:43.548Z,0.40
2023-05-15T06:32:10.212Z,0.40
2023-05-15T06:34:36.905Z,0.40
2023-05-15T06:37:03.760Z,0.40
2023-05-15T06:39:30.398Z,0.30
2023-05-15T06:42:01.250Z,0.40
2023-05-15T06:44:29.903Z,0.60
2023-05-15T06:46:56.621Z,0.50
2023-05-15T06:49:23.992Z,0.40
2023-05-15T06:51:51.072Z,0.50
2023-05-15T06:54:18.141Z,0.40
2023-05-15T06:56:44.793Z,0.40
2023-05-15T06:59:11.497Z,0.40
2023-05-15T07:01:38.697Z,0.40
2023-05-15T07:04:05.612Z,0.30
2023-05-15T07:06:32.395Z,0.40
2023-05-15T07:08:59.593Z,0.40
2023-05-15T07:11:26.691Z,0.40
2023-05-15T07:13:53.537Z,0.40
2023-05-15T07:16:20.194Z,0.40
2023-05-15T07:18:46.946Z,0.40
2023-05-15T07:21:14.070Z,0.40
2023-05-15T07:23:40.722Z,0.40
2023-05-15T07:26:10.137Z,0.50
2023-05-15T07:28:40.904Z,0.40
2023-05-15T07:31:07.912Z,0.40
2023-05-15T07:33:34.611Z,0.40
2023-05-15T07:36:01.527Z,0.50
2023-05-15T07:38:28.473Z,0.50
2023-05-15T07:40:55.388Z,0.60
2023-05-15T07:43:22.057Z,0.40
2023-05-15T07:45:48.810Z,0.60
2023-05-15T07:48:16.665Z,0.50
2023-05-15T07:50:46.136Z,0.50
2023-05-15T07:53:13.747Z,0.40
2023-05-15T07:55:41.013Z,0.60
2023-05-15T07:58:08.286Z,0.50
2023-05-15T08:00:34.919Z,0.60
2023-05-15T08:03:01.875Z,0.40
2023-05-15T08:05:29.695Z,0.40
2023-05-15T08:07:57.119Z,0.60
2023-05-15T08:10:23.784Z,0.60
2023-05-15T08:12:50.713Z,0.70
2023-05-15T08:15:17.551Z,0.50
2023-05-15T08:17:44.257Z,0.90
2023-05-15T08:20:11.811Z,0.60
2023-05-15T08:22:38.489Z,0.40
2023-05-15T08:25:07.085Z,0.40
2023-05-15T08:27:33.850Z,0.50
2023-05-15T08:30:00.567Z,0.50
2023-05-15T08:32:27.413Z,0.90
2023-05-15T08:34:54.159Z,0.40
2023-05-15T08:37:20.873Z,0.50
2023-05-15T08:39:47.536Z,0.40
2023-05-15T08:42:35.237Z,0.60
2023-05-15T08:45:02.032Z,0.50
2023-05-15T08:47:29.224Z,0.60
2023-05-15T08:50:16.003Z,0.50
2023-05-15T08:52:44.177Z,0.60
2023-05-15T08:55:11.340Z,0.40
2023-05-15T08:57:38.502Z,0.50
2023-05-15T09:00:09.196Z,0.50
2023-05-15T09:02:37.496Z,0.50
2023-05-15T09:05:05.208Z,0.70
2023-05-15T09:07:32.013Z,0.50
2023-05-15T09:09:59.202Z,0.40
2023-05-15T09:12:26.407Z,0.60
2023-05-15T09:15:10.046Z,0.50
2023-05-15T09:17:37.267Z,0.50
2023-05-15T09:20:08.350Z,0.50
2023-05-15T09:22:38.089Z,0.40
2023-05-15T09:25:05.732Z,0.40
2023-05-15T09:27:41.204Z,0.50
2023-05-15T09:30:08.894Z,0.90
2023-05-15T09:32:37.421Z,0.40
2023-05-15T09:35:04.688Z,0.60
2023-05-15T09:37:32.949Z,0.50
2023-05-15T09:40:11.082Z,0.50
2023-05-15T09:42:38.879Z,0.70
2023-05-15T09:45:06.719Z,0.50
2023-05-15T09:47:33.970Z,0.40
2023-05-15T09:50:00.914Z,0.50
2023-05-15T09:52:28.005Z,0.50
2023-05-15T09:54:54.664Z,0.40
2023-05-15T09:57:22.132Z,0.50
2023-05-15T09:59:49.018Z,0.40
2023-05-15T10:02:32.327Z,0.40
2023-05-15T10:04:59.388Z,0.40
2023-05-15T10:07:33.754Z,0.40
2023-05-15T10:10:02.432Z,0.40
2023-05-15T10:12:29.544Z,1.60
2023-05-15T10:14:56.659Z,0.60
2023-05-15T10:17:23.709Z,0.60
2023-05-15T10:19:58.387Z,0.40
2023-05-15T10:22:28.955Z,0.40
2023-05-15T10:25:01.056Z,0.50
2023-05-15T10:27:27.715Z,0.50
2023-05-15T10:29:54.820Z,0.40
2023-05-15T10:32:21.973Z,0.40
2023-05-15T10:34:48.658Z,0.60
2023-05-15T10:37:15.684Z,0.50
2023-05-15T10:39:42.317Z,0.60
2023-05-15T10:42:09.023Z,0.90
2023-05-15T10:44:35.621Z,0.40
2023-05-15T10:47:02.321Z,0.40
2023-05-15T10:49:29.109Z,0.50
2023-05-15T10:51:56.296Z,0.40
2023-05-15T10:54:23.022Z,0.50
2023-05-15T10:56:52.015Z,0.90
2023-05-15T10:59:19.052Z,0.50
2023-05-15T11:01:45.872Z,0.50
2023-05-15T11:04:19.620Z,0.60
2023-05-15T11:06:48.068Z,0.60
2023-05-15T11:09:27.919Z,1.20
2023-05-15T11:11:58.734Z,0.50
2023-05-15T11:14:26.409Z,0.50
2023-05-15T11:16:53.409Z,0.50
2023-05-15T11:19:29.585Z,0.50
2023-05-15T11:22:08.620Z,0.50
2023-05-15T11:25:02.366Z,0.50
2023-05-15T11:27:30.987Z,0.60
2023-05-15T11:30:21.851Z,0.50
2023-05-15T11:33:11.334Z,0.50
2023-05-15T11:35:40.303Z,0.50
2023-05-15T11:38:10.365Z,0.50
2023-05-15T11:40:58.309Z,0.40
2023-05-15T11:43:28.792Z,0.40
2023-05-15T11:46:08.900Z,0.50
2023-05-15T11:48:40.593Z,0.40
2023-05-15T11:51:15.979Z,0.40
2023-05-15T11:53:42.727Z,0.30
2023-05-15T11:56:22.975Z,0.40
2023-05-15T11:58:55.741Z,0.30
2023-05-15T12:01:22.676Z,0.40
2023-05-15T12:03:50.182Z,0.50
2023-05-15T12:06:17.127Z,0.40
2023-05-15T12:08:44.068Z,0.50
2023-05-15T12:11:10.833Z,1.40
2023-05-15T12:13:37.617Z,0.70
2023-05-15T12:16:04.645Z,0.50
2023-05-15T12:18:32.548Z,0.60
2023-05-15T12:20:59.614Z,0.40
2023-05-15T12:23:27.190Z,0.40
2023-05-15T12:25:58.854Z,0.40
2023-05-15T12:28:26.669Z,0.30
2023-05-15T12:30:53.375Z,0.40
2023-05-15T12:33:20.054Z,0.30
2023-05-15T12:35:52.281Z,0.40
2023-05-15T12:38:18.933Z,0.20
2023-05-15T12:40:46.816Z,0.30
2023-05-15T12:43:13.788Z,0.30
2023-05-15T12:45:41.638Z,0.60
2023-05-15T12:48:08.503Z,0.40
2023-05-15T12:50:35.773Z,0.30
2023-05-15T12:53:03.652Z,0.40
2023-05-15T12:55:34.849Z,0.50
2023-05-15T12:58:08.340Z,0.40
2023-05-15T13:00:40.862Z,0.60
2023-05-15T13:03:11.233Z,0.60
2023-05-15T13:05:38.567Z,0.30
2023-05-15T13:08:07.363Z,0.30
2023-05-15T13:10:35.733Z,0.60
2023-05-15T13:13:02.476Z,0.90
2023-05-15T13:15:40.774Z,0.70
2023-05-15T13:18:12.615Z,0.50
2023-05-15T13:20:43.034Z,0.50
2023-05-15T13:23:10.732Z,0.50
2023-05-15T13:25:37.442Z,0.40
2023-05-15T13:28:05.471Z,0.30
2023-05-15T13:30:32.788Z,0.30
2023-05-15T13:32:59.476Z,0.30
2023-05-15T13:35:26.388Z,0.30
2023-05-15T13:37:53.133Z,0.30
2023-05-15T13:40:19.858Z,0.30
2023-05-15T13:42:46.875Z,0.30
2023-05-15T13:45:15.196Z,0.30
2023-05-15T13:47:42.461Z,0.20
2023-05-15T13:50:10.257Z,0.40
2023-05-15T13:52:37.457Z,0.30
2023-05-15T13:55:05.031Z,0.30
2023-05-15T13:57:32.160Z,0.30
2023-05-15T13:59:58.990Z,0.30
2023-05-15T14:02:29.285Z,0.30
2023-05-15T14:04:56.030Z,0.20
2023-05-15T14:07:23.497Z,0.40
2023-05-15T14:09:50.959Z,0.30
2023-05-15T14:12:17.716Z,0.30
2023-05-15T14:14:47.617Z,0.20
2023-05-15T14:17:15.064Z,0.30
2023-05-15T14:19:41.772Z,0.30
2023-05-15T14:22:08.831Z,0.30
2023-05-15T14:24:35.829Z,0.30
2023-05-15T14:27:02.471Z,0.30
2023-05-15T14:29:29.654Z,0.30
2023-05-15T14:31:56.394Z,0.40
2023-05-15T14:34:23.631Z,0.20
2023-05-15T14:36:50.932Z,0.30
2023-05-15T14:39:17.656Z,0.30
2023-05-15T14:41:44.734Z,0.30
2023-05-15T14:44:11.403Z,0.40
2023-05-15T14:46:38.460Z,0.20
2023-05-15T14:49:05.453Z,0.20
2023-05-15T14:51:32.280Z,0.20
2023-05-15T14:53:58.970Z,0.30
2023-05-15T14:56:25.977Z,0.30
2023-05-15T14:58:53.715Z,0.20
2023-05-15T15:01:20.786Z,0.30
2023-05-15T15:03:48.033Z,0.30
2023-05-15T15:06:14.987Z,0.40
2023-05-15T15:08:41.760Z,0.30
2023-05-15T15:11:08.902Z,0.20
2023-05-15T15:13:35.773Z,0.30
2023-05-15T15:16:02.481Z,0.30
2023-05-15T15:18:29.160Z,0.40
2023-05-15T15:20:55.807Z,0.20
2023-05-15T15:23:22.762Z,0.30
2023-05-15T15:25:49.415Z,0.30
2023-05-15T15:28:16.091Z,0.30
2023-05-15T15:30:42.754Z,0.30
2023-05-15T15:33:09.506Z,0.30
2023-05-15T15:35:36.473Z,0.30
2023-05-15T15:38:03.632Z,0.30
2023-05-15T15:40:30.481Z,0.30
2023-05-15T15:42:57.338Z,0.20
2023-05-15T15:45:24.023Z,0.50
2023-05-15T15:47:50.844Z,0.20
2023-05-15T15:50:17.776Z,0.20
2023-05-15T15:52:44.399Z,0.30
2023-05-15T15:55:11.045Z,0.30
2023-05-15T15:57:38.013Z,0.30
2023-05-15T16:00:06.947Z,0.20
2023-05-15T16:02:34.104Z,0.20
2023-05-15T16:05:01.135Z,0.40
2023-05-15T16:07:28.174Z,0.40
2023-05-15T16:10:04.293Z,0.30
2023-05-15T16:12:39.233Z,0.40
2023-05-15T16:15:20.768Z,0.40
2023-05-15T16:17:50.911Z,0.30
2023-05-15T16:20:17.837Z,0.40
2023-05-15T16:22:44.593Z,0.40
2023-05-15T16:25:11.314Z,0.30
2023-05-15T16:27:38.131Z,0.40
2023-05-15T16:30:05.412Z,0.40
2023-05-15T16:32:33.992Z,0.50
2023-05-15T16:35:00.874Z,0.40
2023-05-15T16:37:27.598Z,0.20
2023-05-15T16:39:54.273Z,0.30
2023-05-15T16:42:20.963Z,0.20
2023-05-15T16:44:47.677Z,0.30
2023-05-15T16:47:14.333Z,0.30
2023-05-15T16:49:44.050Z,0.30
2023-05-15T16:52:11.347Z,0.40
2023-05-15T16:54:41.489Z,0.30
2023-05-15T16:57:08.157Z,0.40
2023-05-15T16:59:34.829Z,0.40
2023-05-15T17:02:01.926Z,0.40
2023-05-15T17:04:31.439Z,0.40
2023-05-15T17:06:59.548Z,0.30
2023-05-15T17:09:26.397Z,0.40
2023-05-15T17:11:53.048Z,0.50
2023-05-15T17:14:19.707Z,0.40
2023-05-15T17:16:46.409Z,0.70
2023-05-15T17:19:13.250Z,0.40
2023-05-15T17:21:40.085Z,0.40
2023-05-15T17:24:06.896Z,0.30
2023-05-15T17:26:33.529Z,0.30
2023-05-15T17:29:00.244Z,0.40
2023-05-15T17:31:29.414Z,0.50
2023-05-15T17:33:56.372Z,1.30
2023-05-15T17:36:26.982Z,1.20
2023-05-15T17:38:55.342Z,1.20
2023-05-15T17:41:22.160Z,1.40
2023-05-15T17:43:49.499Z,0.70
2023-05-15T17:46:16.307Z,0.80
2023-05-15T17:48:43.065Z,1.10
2023-05-15T17:51:09.738Z,0.50
2023-05-15T17:53:36.453Z,0.60
2023-05-15T17:56:03.856Z,2.00
2023-05-15T17:58:30.693Z,0.60
2023-05-15T18:00:57.393Z,1.20
2023-05-15T18:03:24.512Z,0.70
2023-05-15T18:05:52.831Z,0.60
2023-05-15T18:08:19.502Z,0.90
2023-05-15T18:10:46.588Z,2.40
2023-05-15T18:13:13.229Z,3.00
2023-05-15T18:15:40.003Z,2.20
2023-05-15T18:18:06.833Z,1.20
2023-05-15T18:22:06.068Z,0.60
2023-05-15T18:24:32.934Z,0.70
2023-05-15T18:26:59.577Z,0.60
2023-05-15T18:29:26.796Z,0.50
2023-05-15T18:31:53.598Z,0.60
2023-05-15T18:34:36.087Z,0.70
2023-05-15T18:37:02.713Z,1.20
2023-05-15T18:40:02.431Z,1.80
2023-05-15T18:42:29.434Z,1.60
2023-05-15T18:44:56.428Z,1.90
2023-05-15T18:47:23.106Z,1.70
2023-05-15T18:49:49.835Z,1.60
2023-05-15T18:52:17.783Z,1.00
2023-05-15T18:54:44.472Z,1.20
2023-05-15T18:57:11.272Z,1.30
2023-05-15T18:59:37.940Z,0.80
2023-05-15T19:02:04.653Z,0.90
2023-05-15T19:04:31.426Z,0.60
2023-05-15T19:06:58.064Z,0.70
2023-05-15T19:09:24.801Z,0.70
2023-05-15T19:11:52.512Z,0.70
2023-05-15T19:14:19.386Z,0.80
2023-05-15T19:16:46.289Z,0.60
2023-05-15T19:19:13.416Z,0.50
2023-05-15T19:21:40.270Z,0.60
2023-05-15T19:24:07.144Z,0.80
2023-05-15T19:26:34.113Z,0.60
2023-05-15T19:29:00.846Z,0.90
2023-05-15T19:31:31.905Z,0.70
2023-05-15T19:33:59.897Z,0.50
2023-05-15T19:36:27.014Z,0.40
2023-05-15T19:38:53.801Z,0.40
2023-05-15T19:41:21.654Z,0.40
2023-05-15T19:43:50.672Z,0.40
2023-05-15T19:46:18.135Z,0.50
2023-05-15T19:48:45.082Z,0.40
2023-05-15T19:51:11.889Z,0.40
2023-05-15T19:53:38.545Z,0.50
2023-05-15T19:56:05.692Z,0.40
2023-05-15T19:58:32.622Z,0.40
2023-05-15T20:00:59.254Z,0.30
2023-05-15T20:03:32.980Z,0.30
2023-05-15T20:06:01.428Z,0.50
2023-05-15T20:08:28.717Z,0.40
2023-05-15T20:10:55.549Z,0.40
2023-05-15T20:13:22.587Z,0.40
2023-05-15T20:15:57.154Z,0.40
2023-05-15T20:18:25.006Z,0.60
2023-05-15T20:20:54.616Z,0.40
2023-05-15T20:23:21.440Z,0.40
2023-05-15T20:25:49.301Z,0.40
2023-05-15T20:28:17.655Z,0.40
2023-05-15T20:30:47.394Z,0.40
2023-05-15T20:33:14.320Z,0.30
2023-05-15T20:35:42.787Z,0.40
2023-05-15T20:38:10.521Z,0.50
2023-05-15T20:40:38.094Z,0.40
2023-05-15T20:43:05.024Z,0.40
2023-05-15T20:45:34.617Z,0.40
2023-05-15T20:48:01.555Z,0.50
2023-05-15T20:50:28.529Z,0.90
2023-05-15T20:52:55.775Z,0.40
2023-05-15T20:55:22.797Z,0.60
2023-05-15T20:57:49.586Z,0.50
2023-05-15T21:00:17.056Z,0.40
2023-05-15T21:02:44.434Z,0.50
2023-05-15T21:05:11.400Z,0.40
2023-05-15T21:07:38.056Z,0.40
2023-05-15T21:10:05.196Z,0.50
2023-05-15T21:12:35.118Z,0.60
2023-05-15T21:15:02.244Z,0.50
2023-05-15T21:17:29.387Z,0.40
2023-05-15T21:19:58.463Z,0.60
2023-05-15T21:22:25.230Z,0.60
2023-05-15T21:24:52.229Z,0.50
2023-05-15T21:27:18.868Z,0.40
2023-05-15T21:29:46.421Z,0.50
2023-05-15T21:32:13.404Z,0.50
2023-05-15T21:34:40.136Z,0.50
2023-05-15T21:37:06.768Z,0.60
2023-05-15T21:39:33.636Z,0.70
2023-05-15T21:42:00.311Z,0.60
2023-05-15T21:44:26.962Z,0.50
2023-05-15T21:46:53.843Z,0.50
2023-05-15T21:49:20.852Z,0.50
2023-05-15T21:51:47.592Z,0.40
2023-05-15T21:54:14.423Z,0.50
2023-05-15T21:56:41.267Z,0.60
2023-05-15T21:59:08.214Z,0.60
2023-05-15T22:01:36.302Z,0.50
2023-05-15T22:04:03.156Z,0.50
2023-05-15T22:06:29.933Z,0.50
2023-05-15T22:08:57.584Z,0.40
2023-05-15T22:11:24.416Z,0.50
2023-05-15T22:13:51.140Z,0.40
2023-05-15T22:16:19.277Z,0.50
2023-05-15T22:18:47.659Z,0.40
2023-05-15T22:21:15.243Z,0.50
2023-05-15T22:23:41.913Z,0.40
2023-05-15T22:26:08.652Z,0.50
2023-05-15T22:28:35.527Z,0.50
2023-05-15T22:31:03.169Z,0.50
2023-05-15T22:33:29.978Z,0.40
2023-05-15T22:35:56.599Z,0.50
2023-05-15T22:38:23.237Z,0.40
2023-05-15T22:40:53.246Z,0.60
2023-05-15T22:43:19.986Z,0.50
2023-05-15T22:45:47.450Z,0.50
2023-05-15T22:48:15.442Z,0.70
2023-05-15T22:50:42.143Z,0.50
2023-05-15T22:53:08.852Z,0.60
2023-05-15T22:55:35.537Z,0.60
2023-05-15T22:58:02.214Z,0.60
2023-05-15T23:00:29.228Z,0.60
2023-05-15T23:02:57.495Z,0.70
2023-05-15T23:05:25.086Z,0.50
2023-05-15T23:07:52.688Z,0.80
2023-05-15T23:10:19.554Z,0.80
2023-05-15T23:12:46.407Z,0.80
2023-05-15T23:15:13.169Z,1.00
2023-05-15T23:17:39.980Z,0.80
2023-05-15T23:20:08.993Z,0.60
2023-05-15T23:22:36.488Z,0.70
2023-05-15T23:25:04.092Z,0.60
2023-05-15T23:27:31.026Z,0.60
2023-05-15T23:29:57.939Z,0.60
2023-05-15T23:32:24.653Z,0.50
2023-05-15T23:34:52.255Z,0.70
2023-05-15T23:37:19.036Z,0.60
2023-05-15T23:39:45.780Z,0.60
2023-05-15T23:42:12.814Z,0.50
2023-05-15T23:44:39.679Z,0.60
2023-05-15T23:47:06.712Z,0.50
2023-05-15T23:49:33.733Z,0.60
2023-05-15T23:52:00.607Z,0.50
2023-05-15T23:54:27.967Z,0.60
2023-05-15T23:56:54.871Z,0.60
2023-05-15T23:59:21.518Z,0.50
